createdAt,value
2022-10-20T00:01:22.692Z,11.30
2022-10-20T00:03:50.575Z,11.35
2022-10-20T00:06:20.539Z,11.80
2022-10-20T00:08:48.159Z,10.15
2022-10-20T00:11:16.299Z,11.65
2022-10-20T00:13:44.482Z,11.20
2022-10-20T00:16:12.008Z,11.98
2022-10-20T00:18:39.883Z,9.93
2022-10-20T00:21:07.926Z,11.32
2022-10-20T00:23:36.948Z,9.98
2022-10-20T00:26:04.650Z,10.70
2022-10-20T00:28:31.957Z,9.93
2022-10-20T00:30:59.321Z,10.32
2022-10-20T00:33:26.809Z,10.20
2022-10-20T00:35:54.196Z,10.88
2022-10-20T00:38:21.516Z,10.05
2022-10-20T00:40:50.205Z,11.00
2022-10-20T00:43:17.513Z,9.73
2022-10-20T00:45:45.916Z,9.93
2022-10-20T00:48:14.672Z,10.23
2022-10-20T00:50:43.325Z,10.00
2022-10-20T00:53:11.372Z,10.02
2022-10-20T00:55:41.573Z,9.50
2022-10-20T00:58:10.286Z,10.35
2022-10-20T01:00:38.567Z,8.02
2022-10-20T01:03:07.078Z,8.93
2022-10-20T01:05:34.439Z,10.75
2022-10-20T01:08:02.129Z,9.90
2022-10-20T01:10:33.274Z,10.57
2022-10-20T01:13:02.270Z,9.95
2022-10-20T01:15:35.754Z,10.13
2022-10-20T01:18:05.432Z,8.93
2022-10-20T01:20:47.491Z,9.48
2022-10-20T01:23:33.028Z,9.15
2022-10-20T01:26:20.485Z,9.95
2022-10-20T01:28:52.390Z,9.65
2022-10-20T01:31:24.366Z,9.20
2022-10-20T01:33:55.583Z,9.68
2022-10-20T01:36:27.521Z,10.55
2022-10-20T01:38:57.023Z,10.38
2022-10-20T01:41:28.400Z,9.43
2022-10-20T01:43:57.468Z,9.50
2022-10-20T01:46:26.132Z,10.85
2022-10-20T01:48:53.533Z,9.50
2022-10-20T01:51:20.913Z,9.85
2022-10-20T01:53:48.258Z,10.10
2022-10-20T01:56:17.402Z,9.68
2022-10-20T01:59:02.367Z,10.15
2022-10-20T02:01:38.437Z,9.55
2022-10-20T02:04:06.622Z,9.68
2022-10-20T02:06:38.663Z,10.82
2022-10-20T02:09:07.138Z,9.50
2022-10-20T02:11:39.680Z,9.50
2022-10-20T02:14:08.533Z,10.25
2022-10-20T02:16:40.537Z,9.07
2022-10-20T02:19:09.375Z,9.98
2022-10-20T02:21:36.976Z,10.15
2022-10-20T02:24:05.844Z,9.88
2022-10-20T02:26:33.792Z,9.00
2022-10-20T02:29:02.106Z,8.95
2022-10-20T02:31:29.882Z,9.23
2022-10-20T02:33:58.682Z,8.15
2022-10-20T02:36:27.379Z,9.23
2022-10-20T02:38:54.710Z,9.95
2022-10-20T02:41:22.236Z,9.98
2022-10-20T02:43:49.518Z,9.20
2022-10-20T02:46:17.103Z,9.35
2022-10-20T02:48:44.696Z,9.43
2022-10-20T02:51:13.527Z,9.90
2022-10-20T02:53:40.800Z,9.35
2022-10-20T02:56:08.426Z,8.95
2022-10-20T02:58:35.698Z,8.85
2022-10-20T03:01:03.139Z,9.57
2022-10-20T03:03:30.486Z,9.10
2022-10-20T03:05:57.838Z,9.30
2022-10-20T03:08:26.580Z,8.85
2022-10-20T03:10:53.905Z,9.05
2022-10-20T03:13:21.328Z,8.30
2022-10-20T03:15:48.655Z,9.45
2022-10-20T03:18:16.018Z,9.07
2022-10-20T03:20:44.664Z,9.38
2022-10-20T03:23:14.098Z,8.20
2022-10-20T03:25:45.054Z,9.38
2022-10-20T03:28:12.470Z,8.38
2022-10-20T03:30:39.855Z,8.27
2022-10-20T03:33:07.994Z,8.45
2022-10-20T03:35:35.516Z,8.77
2022-10-20T03:38:02.856Z,8.38
2022-10-20T03:40:30.208Z,7.70
2022-10-20T03:42:58.881Z,7.97
2022-10-20T03:45:26.191Z,7.78
2022-10-20T03:47:53.502Z,8.00
2022-10-20T03:50:20.826Z,8.55
2022-10-20T03:52:48.635Z,8.18
2022-10-20T03:55:15.961Z,7.70
2022-10-20T03:57:43.476Z,7.00
2022-10-20T04:00:13.150Z,8.50
2022-10-20T04:02:42.253Z,8.70
2022-10-20T04:05:10.079Z,8.50
2022-10-20T04:07:37.358Z,9.00
2022-10-20T04:10:04.882Z,8.32
2022-10-20T04:12:32.189Z,8.50
2022-10-20T04:14:59.483Z,8.02
2022-10-20T04:17:28.203Z,8.65
2022-10-20T04:19:55.624Z,7.75
2022-10-20T04:22:22.920Z,8.38
2022-10-20T04:24:50.238Z,8.45
2022-10-20T04:27:17.594Z,7.90
2022-10-20T04:29:44.931Z,8.18
2022-10-20T04:32:12.339Z,9.48
2022-10-20T04:34:40.961Z,8.13
2022-10-20T04:37:08.259Z,8.52
2022-10-20T04:39:35.559Z,9.35
2022-10-20T04:42:02.964Z,8.95
2022-10-20T04:44:30.294Z,7.88
2022-10-20T04:46:57.621Z,7.90
2022-10-20T04:49:24.995Z,7.72
2022-10-20T04:51:57.421Z,8.02
2022-10-20T04:54:28.152Z,7.80
2022-10-20T04:56:55.476Z,6.80
2022-10-20T04:59:22.822Z,6.13
2022-10-20T05:01:50.261Z,7.70
2022-10-20T05:04:21.216Z,6.03
2022-10-20T05:06:48.603Z,7.40
2022-10-20T05:09:17.413Z,7.38
2022-10-20T05:11:45.140Z,7.75
2022-10-20T05:14:12.468Z,7.40
2022-10-20T05:16:39.809Z,7.68
2022-10-20T05:19:07.168Z,7.00
2022-10-20T05:21:34.560Z,8.38
2022-10-20T05:24:02.280Z,7.82
2022-10-20T05:26:34.333Z,7.88
2022-10-20T05:29:02.337Z,8.20
2022-10-20T05:31:29.735Z,7.32
2022-10-20T05:33:57.439Z,7.13
2022-10-20T05:36:25.458Z,8.57
2022-10-20T05:38:53.770Z,7.90
2022-10-20T05:41:21.895Z,8.20
2022-10-20T05:43:51.391Z,8.02
2022-10-20T05:46:19.140Z,9.02
2022-10-20T05:48:46.498Z,8.55
2022-10-20T05:51:15.447Z,8.35
2022-10-20T05:53:43.100Z,7.22
2022-10-20T05:56:12.342Z,8.10
2022-10-20T05:58:40.018Z,7.95
2022-10-20T06:01:10.045Z,7.55
2022-10-20T06:03:37.808Z,8.93
2022-10-20T06:06:05.590Z,8.43
2022-10-20T06:08:33.253Z,8.43
2022-10-20T06:11:03.896Z,8.60
2022-10-20T06:13:31.610Z,8.43
2022-10-20T06:16:02.141Z,8.10
2022-10-20T06:18:30.785Z,8.95
2022-10-20T06:21:01.915Z,7.93
2022-10-20T06:23:29.253Z,7.90
2022-10-20T06:25:56.796Z,8.48
2022-10-20T06:28:24.102Z,9.02
2022-10-20T06:30:51.388Z,8.60
2022-10-20T06:33:18.983Z,8.00
2022-10-20T06:35:47.638Z,8.82
2022-10-20T06:38:17.669Z,10.25
2022-10-20T06:40:44.954Z,8.68
2022-10-20T06:43:12.302Z,8.45
2022-10-20T06:45:39.665Z,9.68
2022-10-20T06:48:07.087Z,9.65
2022-10-20T06:50:34.698Z,9.27
2022-10-20T06:53:03.399Z,9.48
2022-10-20T06:55:30.702Z,9.10
2022-10-20T06:57:58.105Z,9.38
2022-10-20T07:00:25.613Z,9.98
2022-10-20T07:02:53.083Z,9.13
2022-10-20T07:05:21.837Z,9.60
2022-10-20T07:07:49.127Z,8.75
2022-10-20T07:10:17.789Z,8.75
2022-10-20T07:12:45.126Z,8.88
2022-10-20T07:15:12.422Z,8.88
2022-10-20T07:17:39.740Z,10.30
2022-10-20T07:20:07.701Z,9.57
2022-10-20T07:22:37.244Z,9.52
2022-10-20T07:25:06.746Z,8.73
2022-10-20T07:27:35.376Z,9.02
2022-10-20T07:30:02.734Z,9.20
2022-10-20T07:32:30.160Z,7.30
2022-10-20T07:34:57.479Z,8.15
2022-10-20T07:37:24.794Z,9.88
2022-10-20T07:39:52.090Z,8.43
2022-10-20T07:42:19.352Z,8.93
2022-10-20T07:44:48.021Z,8.82
2022-10-20T07:47:15.341Z,10.18
2022-10-20T07:49:44.240Z,9.35
2022-10-20T07:52:12.167Z,10.05
2022-10-20T07:54:39.491Z,8.90
2022-10-20T07:57:06.776Z,9.73
2022-10-20T07:59:34.513Z,10.15
2022-10-20T08:02:03.656Z,9.98
2022-10-20T08:04:31.868Z,9.85
2022-10-20T08:06:59.429Z,9.70
2022-10-20T08:09:26.803Z,9.23
2022-10-20T08:11:55.626Z,10.30
2022-10-20T08:14:23.379Z,8.93
2022-10-20T08:17:03.622Z,10.20
2022-10-20T08:21:09.433Z,10.02
2022-10-20T08:22:22.070Z,9.82
2022-10-20T08:24:49.393Z,9.25
2022-10-20T08:27:16.821Z,9.68
2022-10-20T08:29:50.825Z,9.02
2022-10-20T08:32:27.379Z,9.18
2022-10-20T08:34:56.034Z,9.60
2022-10-20T08:37:23.371Z,9.60
2022-10-20T08:39:50.720Z,9.90
2022-10-20T08:42:18.692Z,10.30
2022-10-20T08:44:46.992Z,8.95
2022-10-20T08:47:17.688Z,9.68
2022-10-20T08:49:45.563Z,9.80
2022-10-20T08:52:15.251Z,10.05
2022-10-20T08:54:42.739Z,10.40
2022-10-20T08:57:19.829Z,9.70
2022-10-20T08:59:47.173Z,9.70
2022-10-20T09:02:16.951Z,9.80
2022-10-20T09:04:47.567Z,9.98
2022-10-20T09:07:21.286Z,9.82
2022-10-20T09:09:48.608Z,9.18
2022-10-20T09:12:16.070Z,9.50
2022-10-20T09:14:43.491Z,9.32
2022-10-20T09:17:14.206Z,9.95
2022-10-20T09:19:43.817Z,9.65
2022-10-20T09:22:12.896Z,9.65
2022-10-20T09:24:42.759Z,10.23
2022-10-20T09:27:18.663Z,10.77
2022-10-20T09:29:46.291Z,9.57
2022-10-20T09:32:44.895Z,10.43
2022-10-20T09:35:23.256Z,11.55
2022-10-20T09:37:59.270Z,10.50
2022-10-20T09:40:28.429Z,10.18
2022-10-20T09:42:56.782Z,10.25
2022-10-20T09:45:25.112Z,9.75
2022-10-20T09:47:54.571Z,10.57
2022-10-20T09:50:26.060Z,11.20
2022-10-20T09:52:53.402Z,11.18
2022-10-20T09:55:25.967Z,10.45
2022-10-20T09:57:54.926Z,11.10
2022-10-20T10:00:36.706Z,9.65
2022-10-20T10:03:14.527Z,11.27
2022-10-20T10:05:41.969Z,11.67
2022-10-20T10:08:14.037Z,10.10
2022-10-20T10:10:41.380Z,11.68
2022-10-20T10:13:24.718Z,10.15
2022-10-20T10:16:00.154Z,13.18
2022-10-20T10:18:27.508Z,12.25
2022-10-20T10:20:58.523Z,14.18
2022-10-20T10:23:27.083Z,10.38
2022-10-20T10:25:57.965Z,12.95
2022-10-20T10:28:34.212Z,11.20
2022-10-20T10:31:09.481Z,16.25
2022-10-20T10:33:36.797Z,12.13
2022-10-20T10:36:05.934Z,11.27
2022-10-20T10:38:39.058Z,13.32
2022-10-20T10:41:14.183Z,13.77
2022-10-20T10:43:47.897Z,14.63
2022-10-20T10:46:18.044Z,15.07
2022-10-20T10:48:55.994Z,15.80
2022-10-20T10:51:29.080Z,17.15
2022-10-20T10:54:05.145Z,16.05
2022-10-20T10:56:41.520Z,17.23
2022-10-20T10:59:13.429Z,16.77
2022-10-20T11:01:48.252Z,16.25
2022-10-20T11:06:45.499Z,14.45
2022-10-20T11:09:21.735Z,17.63
2022-10-20T11:11:57.801Z,17.10
2022-10-20T11:14:32.534Z,16.75
2022-10-20T11:17:06.571Z,18.70
2022-10-20T11:19:47.949Z,19.37
2022-10-20T11:22:20.568Z,19.13
2022-10-20T11:24:50.162Z,19.50
2022-10-20T11:27:18.861Z,18.92
2022-10-20T11:29:48.706Z,20.42
2022-10-20T11:32:20.463Z,20.27
2022-10-20T11:34:51.321Z,17.38
2022-10-20T11:37:21.218Z,18.15
2022-10-20T11:39:52.973Z,20.00
2022-10-20T11:42:24.464Z,19.88
2022-10-20T11:44:53.380Z,20.15
2022-10-20T11:47:23.704Z,20.73
2022-10-20T11:49:51.039Z,22.58
2022-10-20T11:52:29.262Z,22.80
2022-10-20T11:55:23.619Z,19.35
2022-10-20T11:58:00.405Z,22.13
2022-10-20T12:00:36.974Z,21.35
2022-10-20T12:03:17.390Z,21.48
2022-10-20T12:05:52.696Z,23.70
2022-10-20T12:08:31.013Z,25.33
2022-10-20T12:11:01.868Z,24.98
2022-10-20T12:13:34.893Z,24.48
2022-10-20T12:16:03.604Z,21.40
2022-10-20T12:18:32.259Z,22.02
2022-10-20T12:21:01.652Z,22.25
2022-10-20T12:23:49.320Z,24.55
2022-10-20T12:26:35.149Z,23.40
2022-10-20T12:29:06.644Z,22.85
2022-10-20T12:31:51.473Z,18.35
2022-10-20T12:34:24.588Z,18.73
2022-10-20T12:36:51.899Z,21.00
2022-10-20T12:39:20.810Z,21.40
2022-10-20T12:41:57.215Z,22.05
2022-10-20T12:44:24.758Z,19.05
2022-10-20T12:46:56.317Z,18.55
2022-10-20T12:49:28.276Z,18.33
2022-10-20T12:51:56.973Z,18.55
2022-10-20T12:54:25.742Z,19.88
2022-10-20T12:56:55.156Z,21.42
2022-10-20T12:59:46.425Z,21.15
2022-10-20T13:02:37.750Z,21.35
2022-10-20T13:05:25.701Z,21.70
2022-10-20T13:08:16.803Z,21.05
2022-10-20T13:10:44.197Z,22.77
2022-10-20T13:13:29.987Z,22.42
2022-10-20T13:15:57.511Z,22.38
2022-10-20T13:18:28.142Z,18.35
2022-10-20T13:20:58.977Z,23.00
2022-10-20T13:23:29.859Z,21.27
2022-10-20T13:25:58.307Z,21.20
2022-10-20T13:28:26.803Z,21.23
2022-10-20T13:31:05.364Z,19.05
2022-10-20T13:33:58.851Z,20.73
2022-10-20T13:36:28.573Z,20.23
2022-10-20T13:38:58.693Z,20.58
2022-10-20T13:41:29.595Z,20.67
2022-10-20T13:44:00.846Z,20.63
2022-10-20T13:46:35.498Z,17.88
2022-10-20T13:49:23.952Z,17.83
2022-10-20T13:51:54.567Z,16.00
2022-10-20T13:54:24.749Z,17.67
2022-10-20T13:56:52.624Z,17.85
2022-10-20T14:01:51.969Z,18.75
2022-10-20T14:04:26.747Z,19.08
2022-10-20T14:06:55.662Z,19.08
2022-10-20T14:09:23.667Z,17.38
2022-10-20T14:11:53.074Z,17.20
2022-10-20T14:14:22.241Z,16.17
2022-10-20T14:16:52.445Z,15.98
2022-10-20T14:19:21.874Z,14.82
2022-10-20T14:21:50.822Z,16.80
2022-10-20T14:24:23.087Z,14.73
2022-10-20T14:26:50.785Z,14.88
2022-10-20T14:29:19.163Z,12.68
2022-10-20T14:31:47.395Z,14.98
2022-10-20T14:34:19.702Z,15.02
2022-10-20T14:36:47.092Z,13.88
2022-10-20T14:39:22.936Z,12.35
2022-10-20T14:41:50.332Z,12.57
2022-10-20T14:44:31.153Z,11.73
2022-10-20T14:47:01.055Z,15.02
2022-10-20T14:49:30.064Z,15.20
2022-10-20T14:51:58.297Z,14.02
2022-10-20T14:57:24.081Z,16.20
2022-10-20T14:59:53.589Z,14.15
2022-10-20T15:02:21.901Z,15.52
2022-10-20T15:04:51.776Z,15.32
2022-10-20T15:07:20.171Z,14.75
2022-10-20T15:09:49.968Z,14.95
2022-10-20T15:12:18.229Z,16.00
2022-10-20T15:14:46.733Z,16.27
2022-10-20T15:17:32.657Z,14.90
2022-10-20T15:20:00.057Z,15.32
2022-10-20T15:22:27.409Z,16.00
2022-10-20T15:24:56.158Z,16.15
2022-10-20T15:27:23.498Z,15.10
2022-10-20T15:29:51.802Z,11.93
2022-10-20T15:32:19.309Z,16.48
2022-10-20T15:34:46.617Z,15.23
2022-10-20T15:37:13.921Z,17.73
2022-10-20T15:39:41.289Z,15.57
2022-10-20T15:42:11.902Z,16.30
2022-10-20T15:44:39.211Z,16.52
2022-10-20T15:47:06.548Z,14.65
2022-10-20T15:49:33.917Z,16.42
2022-10-20T15:52:01.233Z,16.52
2022-10-20T15:54:28.582Z,15.07
2022-10-20T15:56:56.015Z,16.67
2022-10-20T15:59:24.883Z,17.67
2022-10-20T16:01:52.172Z,17.13
2022-10-20T16:04:23.015Z,16.77
2022-10-20T16:06:52.478Z,17.33
2022-10-20T16:09:20.640Z,15.30
2022-10-20T16:11:48.048Z,16.20
2022-10-20T16:14:15.686Z,16.58
2022-10-20T16:16:44.856Z,16.85
2022-10-20T16:19:12.222Z,16.88
2022-10-20T16:21:39.551Z,18.27
2022-10-20T16:24:07.097Z,16.77
2022-10-20T16:26:34.484Z,17.48
2022-10-20T16:29:01.810Z,18.25
2022-10-20T16:31:29.520Z,14.98
2022-10-20T16:34:00.966Z,17.40
2022-10-20T16:36:28.321Z,17.63
2022-10-20T16:38:56.686Z,14.48
2022-10-20T16:41:26.111Z,16.50
2022-10-20T16:43:55.379Z,18.05
2022-10-20T16:46:26.288Z,19.63
2022-10-20T16:48:56.966Z,18.08
2022-10-20T16:51:25.653Z,17.65
2022-10-20T16:53:55.118Z,15.98
2022-10-20T16:56:23.936Z,15.75
2022-10-20T16:58:51.285Z,18.70
2022-10-20T17:01:19.602Z,19.17
2022-10-20T17:03:48.061Z,18.70
2022-10-20T17:06:16.622Z,18.52
2022-10-20T17:08:45.320Z,20.17
2022-10-20T17:11:13.678Z,19.50
2022-10-20T17:13:41.050Z,20.58
2022-10-20T17:16:09.790Z,19.05
2022-10-20T17:18:37.359Z,19.67
2022-10-20T17:21:05.520Z,19.60
2022-10-20T17:23:36.201Z,20.00
2022-10-20T17:26:07.886Z,20.73
2022-10-20T17:28:35.915Z,21.52
2022-10-20T17:31:03.661Z,21.77
2022-10-20T17:33:31.432Z,21.08
2022-10-20T17:35:59.232Z,22.60
2022-10-20T17:38:27.194Z,21.80
2022-10-20T17:40:55.009Z,22.63
2022-10-20T17:43:23.852Z,22.88
2022-10-20T17:45:57.343Z,21.73
2022-10-20T17:48:24.699Z,21.75
2022-10-20T17:50:59.325Z,20.67
2022-10-20T17:53:26.653Z,19.25
2022-10-20T17:55:53.948Z,21.52
2022-10-20T17:58:21.229Z,19.70
2022-10-20T18:00:56.481Z,21.55
2022-10-20T18:03:24.428Z,22.67
2022-10-20T18:05:51.755Z,22.80
2022-10-20T18:08:19.031Z,17.67
2022-10-20T18:10:46.321Z,20.65
2022-10-20T18:13:13.687Z,20.58
2022-10-20T18:15:44.243Z,19.55
2022-10-20T18:18:12.906Z,20.13
2022-10-20T18:20:40.216Z,20.60
2022-10-20T18:23:07.537Z,20.35
2022-10-20T18:25:36.277Z,20.70
2022-10-20T18:28:03.689Z,18.25
2022-10-20T18:30:31.113Z,19.70
2022-10-20T18:32:58.409Z,22.35
2022-10-20T18:35:27.802Z,20.67
2022-10-20T18:37:57.485Z,19.73
2022-10-20T18:40:24.948Z,17.63
2022-10-20T18:42:52.314Z,19.88
2022-10-20T18:45:22.438Z,18.88
2022-10-20T18:47:52.509Z,19.73
2022-10-20T18:50:19.832Z,18.73
2022-10-20T18:52:48.472Z,19.55
2022-10-20T18:55:15.935Z,19.83
2022-10-20T18:57:43.340Z,19.13
2022-10-20T19:00:11.298Z,19.02
2022-10-20T19:02:38.655Z,18.40
2022-10-20T19:05:06.462Z,18.10
2022-10-20T19:07:34.797Z,16.52
2022-10-20T19:10:03.623Z,19.55
2022-10-20T19:12:31.102Z,20.63
2022-10-20T19:14:58.515Z,20.63
2022-10-20T19:17:25.869Z,20.05
2022-10-20T19:19:54.179Z,17.20
2022-10-20T19:22:25.620Z,20.00
2022-10-20T19:24:55.837Z,21.13
2022-10-20T19:27:27.199Z,19.85
2022-10-20T19:29:55.759Z,20.23
2022-10-20T19:32:23.103Z,16.63
2022-10-20T19:34:50.456Z,21.52
2022-10-20T19:37:17.784Z,21.30
2022-10-20T19:39:45.113Z,21.15
2022-10-20T19:42:13.634Z,19.08
2022-10-20T19:44:42.473Z,20.42
2022-10-20T19:47:09.847Z,20.40
2022-10-20T19:49:38.246Z,21.88
2022-10-20T19:52:05.849Z,20.42
2022-10-20T19:54:33.203Z,21.58
2022-10-20T19:57:00.610Z,21.83
2022-10-20T19:59:27.907Z,19.52
2022-10-20T20:01:56.587Z,20.42
2022-10-20T20:04:23.935Z,23.45
2022-10-20T20:06:51.247Z,23.02
2022-10-20T20:09:18.750Z,24.35
2022-10-20T20:11:46.111Z,22.55
2022-10-20T20:14:14.306Z,23.75
2022-10-20T20:16:41.888Z,23.63
2022-10-20T20:19:10.705Z,25.55
2022-10-20T20:21:38.173Z,24.20
2022-10-20T20:24:05.842Z,23.33
2022-10-20T20:26:34.329Z,25.02
2022-10-20T20:29:01.672Z,25.98
2022-10-20T20:31:29.291Z,25.00
2022-10-20T20:33:57.642Z,25.88
2022-10-20T20:36:27.595Z,25.48
2022-10-20T20:38:57.536Z,27.23
2022-10-20T20:41:26.461Z,25.55
2022-10-20T20:43:53.922Z,25.83
2022-10-20T20:46:22.885Z,27.25
2022-10-20T20:48:50.508Z,26.90
2022-10-20T20:51:18.047Z,25.73
2022-10-20T20:53:46.743Z,27.42
2022-10-20T20:56:14.985Z,27.70
2022-10-20T20:58:45.106Z,27.90
2022-10-20T21:01:13.944Z,27.55
2022-10-20T21:03:41.416Z,28.98
2022-10-20T21:06:09.952Z,26.10
2022-10-20T21:08:38.100Z,27.27
2022-10-20T21:11:07.717Z,26.08
2022-10-20T21:13:35.177Z,26.75
2022-10-20T21:16:09.701Z,28.45
2022-10-20T21:18:37.091Z,28.48
2022-10-20T21:21:07.908Z,28.70
2022-10-20T21:23:35.284Z,27.65
2022-10-20T21:26:02.630Z,26.08
2022-10-20T21:28:31.320Z,25.42
2022-10-20T21:31:00.952Z,24.83
2022-10-20T21:33:28.738Z,27.00
2022-10-20T21:35:59.850Z,26.65
2022-10-20T21:38:29.266Z,25.80
2022-10-20T21:41:01.625Z,25.75
2022-10-20T21:43:30.732Z,24.02
2022-10-20T21:45:58.085Z,26.77
2022-10-20T21:48:25.428Z,23.58
2022-10-20T21:50:52.815Z,25.27
2022-10-20T21:53:20.268Z,21.88
2022-10-20T21:55:47.693Z,19.52
2022-10-20T21:58:14.974Z,21.92
2022-10-20T22:00:43.713Z,24.58
2022-10-20T22:03:11.034Z,22.05
2022-10-20T22:05:38.391Z,22.30
2022-10-20T22:08:05.968Z,21.30
2022-10-20T22:10:36.431Z,21.25
2022-10-20T22:13:03.885Z,18.58
2022-10-20T22:15:31.178Z,20.33
2022-10-20T22:17:59.830Z,19.25
2022-10-20T22:20:27.192Z,19.23
2022-10-20T22:22:54.557Z,20.48
2022-10-20T22:25:21.866Z,21.77
2022-10-20T22:27:49.172Z,18.13
2022-10-20T22:30:16.482Z,20.88
2022-10-20T22:32:43.786Z,20.85
2022-10-20T22:35:12.456Z,20.38
2022-10-20T22:37:39.770Z,20.33
2022-10-20T22:40:07.819Z,20.75
2022-10-20T22:42:35.160Z,21.48
2022-10-20T22:45:02.464Z,20.58
2022-10-20T22:47:29.823Z,21.13
2022-10-20T22:49:57.137Z,20.08
2022-10-20T22:52:25.790Z,20.08
2022-10-20T22:54:53.118Z,20.05
2022-10-20T22:57:20.463Z,19.35
2022-10-20T22:59:47.799Z,20.13
2022-10-20T23:02:15.121Z,20.13
2022-10-20T23:04:42.394Z,18.38
2022-10-20T23:07:09.784Z,19.30
2022-10-20T23:09:38.454Z,17.83
2022-10-20T23:12:05.807Z,17.58
2022-10-20T23:14:33.097Z,17.75
2022-10-20T23:17:00.530Z,17.10
2022-10-20T23:19:27.805Z,18.73
2022-10-20T23:21:55.094Z,18.30
2022-10-20T23:24:22.450Z,19.00
2022-10-20T23:26:51.148Z,19.80
2022-10-20T23:29:18.458Z,21.05
2022-10-20T23:31:45.767Z,19.98
2022-10-20T23:34:13.064Z,19.92
2022-10-20T23:36:40.431Z,20.15
2022-10-20T23:39:07.766Z,19.38
2022-10-20T23:41:35.137Z,17.00
2022-10-20T23:44:03.818Z,21.27
2022-10-20T23:46:32.373Z,19.90
2022-10-20T23:48:59.813Z,21.02
2022-10-20T23:51:27.160Z,18.98
2022-10-20T23:53:54.543Z,21.80
2022-10-20T23:56:21.857Z,20.17
2022-10-20T23:58:49.175Z,20.83
